sensor_id;sensor_type;location;lat;lon;timestamp;P1;durP1;ratioP1;P2;durP2;ratioP2
10281;SDS011;5186;59.472;18.048;2023-09-18T00:01:36;4.00;;;0.90;;
10281;SDS011;5186;59.472;18.048;2023-09-18T00:04:04;0.57;;;0.57;;
10281;SDS011;5186;59.472;18.048;2023-09-18T00:06:30;1.50;;;0.70;;
10281;SDS011;5186;59.472;18.048;2023-09-18T00:08:56;1.10;;;0.70;;
10281;SDS011;5186;59.472;18.048;2023-09-18T00:11:21;2.50;;;0.60;;
10281;SDS011;5186;59.472;18.048;2023-09-18T00:13:47;2.10;;;1.20;;
10281;SDS011;5186;59.472;18.048;2023-09-18T00:16:12;0.90;;;0.80;;
10281;SDS011;5186;59.472;18.048;2023-09-18T00:18:38;1.27;;;0.67;;
10281;SDS011;5186;59.472;18.048;2023-09-18T00:21:04;1.73;;;0.70;;
10281;SDS011;5186;59.472;18.048;2023-09-18T00:23:31;1.13;;;0.80;;
10281;SDS011;5186;59.472;18.048;2023-09-18T00:26:00;1.43;;;0.90;;
10281;SDS011;5186;59.472;18.048;2023-09-18T00:28:26;1.07;;;0.70;;
10281;SDS011;5186;59.472;18.048;2023-09-18T00:30:51;1.07;;;0.63;;
10281;SDS011;5186;59.472;18.048;2023-09-18T00:33:17;2.43;;;0.53;;
10281;SDS011;5186;59.472;18.048;2023-09-18T00:35:50;1.60;;;0.80;;
10281;SDS011;5186;59.472;18.048;2023-09-18T00:38:16;0.77;;;0.70;;
10281;SDS011;5186;59.472;18.048;2023-09-18T00:40:42;1.67;;;0.70;;
10281;SDS011;5186;59.472;18.048;2023-09-18T00:43:08;2.00;;;0.93;;
10281;SDS011;5186;59.472;18.048;2023-09-18T00:45:35;2.10;;;0.70;;
10281;SDS011;5186;59.472;18.048;2023-09-18T00:48:06;1.57;;;0.60;;
10281;SDS011;5186;59.472;18.048;2023-09-18T00:50:32;1.37;;;0.60;;
10281;SDS011;5186;59.472;18.048;2023-09-18T00:52:58;1.17;;;0.80;;
10281;SDS011;5186;59.472;18.048;2023-09-18T00:55:25;1.00;;;0.70;;
10281;SDS011;5186;59.472;18.048;2023-09-18T00:57:51;0.80;;;0.50;;
10281;SDS011;5186;59.472;18.048;2023-09-18T01:00:17;1.03;;;0.80;;
10281;SDS011;5186;59.472;18.048;2023-09-18T01:02:43;2.30;;;0.70;;
10281;SDS011;5186;59.472;18.048;2023-09-18T01:05:10;1.73;;;0.70;;
10281;SDS011;5186;59.472;18.048;2023-09-18T01:07:35;1.30;;;0.80;;
10281;SDS011;5186;59.472;18.048;2023-09-18T01:10:01;0.90;;;0.70;;
10281;SDS011;5186;59.472;18.048;2023-09-18T01:12:31;0.60;;;0.60;;
10281;SDS011;5186;59.472;18.048;2023-09-18T01:15:11;0.70;;;0.60;;
10281;SDS011;5186;59.472;18.048;2023-09-18T01:17:41;0.63;;;0.63;;
10281;SDS011;5186;59.472;18.048;2023-09-18T01:20:08;1.87;;;0.70;;
10281;SDS011;5186;59.472;18.048;2023-09-18T01:22:35;1.20;;;0.70;;
10281;SDS011;5186;59.472;18.048;2023-09-18T01:25:01;1.30;;;0.90;;
10281;SDS011;5186;59.472;18.048;2023-09-18T01:27:28;2.13;;;0.77;;
10281;SDS011;5186;59.472;18.048;2023-09-18T01:29:53;1.07;;;0.70;;
10281;SDS011;5186;59.472;18.048;2023-09-18T01:32:19;0.80;;;0.70;;
10281;SDS011;5186;59.472;18.048;2023-09-18T01:34:51;1.70;;;0.70;;
10281;SDS011;5186;59.472;18.048;2023-09-18T01:37:20;2.10;;;0.77;;
10281;SDS011;5186;59.472;18.048;2023-09-18T01:39:48;1.80;;;0.80;;
10281;SDS011;5186;59.472;18.048;2023-09-18T01:42:14;2.60;;;1.00;;
10281;SDS011;5186;59.472;18.048;2023-09-18T01:44:40;1.47;;;0.90;;
10281;SDS011;5186;59.472;18.048;2023-09-18T01:47:07;0.87;;;0.87;;
10281;SDS011;5186;59.472;18.048;2023-09-18T01:49:39;1.07;;;0.80;;
10281;SDS011;5186;59.472;18.048;2023-09-18T01:52:06;1.70;;;0.67;;
10281;SDS011;5186;59.472;18.048;2023-09-18T01:54:33;0.80;;;0.80;;
10281;SDS011;5186;59.472;18.048;2023-09-18T01:57:00;1.00;;;0.70;;
10281;SDS011;5186;59.472;18.048;2023-09-18T01:59:26;1.07;;;0.70;;
10281;SDS011;5186;59.472;18.048;2023-09-18T02:01:52;2.23;;;0.60;;
10281;SDS011;5186;59.472;18.048;2023-09-18T02:04:18;2.03;;;0.90;;
10281;SDS011;5186;59.472;18.048;2023-09-18T02:06:45;0.87;;;0.57;;
10281;SDS011;5186;59.472;18.048;2023-09-18T02:09:12;1.67;;;0.67;;
10281;SDS011;5186;59.472;18.048;2023-09-18T02:11:38;0.77;;;0.70;;
10281;SDS011;5186;59.472;18.048;2023-09-18T02:14:05;1.07;;;0.60;;
10281;SDS011;5186;59.472;18.048;2023-09-18T02:16:32;2.47;;;0.90;;
10281;SDS011;5186;59.472;18.048;2023-09-18T02:18:58;2.97;;;0.90;;
10281;SDS011;5186;59.472;18.048;2023-09-18T02:21:24;1.37;;;0.60;;
10281;SDS011;5186;59.472;18.048;2023-09-18T02:23:50;1.43;;;0.70;;
10281;SDS011;5186;59.472;18.048;2023-09-18T02:26:17;1.13;;;0.70;;
10281;SDS011;5186;59.472;18.048;2023-09-18T02:28:43;0.90;;;0.70;;
10281;SDS011;5186;59.472;18.048;2023-09-18T02:31:09;0.60;;;0.60;;
10281;SDS011;5186;59.472;18.048;2023-09-18T02:33:34;1.57;;;0.67;;
10281;SDS011;5186;59.472;18.048;2023-09-18T02:36:00;1.00;;;0.90;;
10281;SDS011;5186;59.472;18.048;2023-09-18T02:38:26;1.27;;;0.60;;
10281;SDS011;5186;59.472;18.048;2023-09-18T02:40:52;0.70;;;0.70;;
10281;SDS011;5186;59.472;18.048;2023-09-18T02:43:19;3.97;;;0.83;;
10281;SDS011;5186;59.472;18.048;2023-09-18T02:45:45;1.60;;;0.83;;
10281;SDS011;5186;59.472;18.048;2023-09-18T02:48:11;0.93;;;0.70;;
10281;SDS011;5186;59.472;18.048;2023-09-18T02:50:37;0.90;;;0.67;;
10281;SDS011;5186;59.472;18.048;2023-09-18T02:53:05;0.90;;;0.80;;
10281;SDS011;5186;59.472;18.048;2023-09-18T02:55:31;2.20;;;0.80;;
10281;SDS011;5186;59.472;18.048;2023-09-18T02:57:57;2.10;;;1.10;;
10281;SDS011;5186;59.472;18.048;2023-09-18T03:00:24;1.07;;;0.70;;
10281;SDS011;5186;59.472;18.048;2023-09-18T03:02:49;0.50;;;0.50;;
10281;SDS011;5186;59.472;18.048;2023-09-18T03:05:15;0.63;;;0.63;;
10281;SDS011;5186;59.472;18.048;2023-09-18T03:07:40;2.47;;;0.70;;
10281;SDS011;5186;59.472;18.048;2023-09-18T03:10:06;1.93;;;0.77;;
10281;SDS011;5186;59.472;18.048;2023-09-18T03:12:32;0.60;;;0.60;;
10281;SDS011;5186;59.472;18.048;2023-09-18T03:14:58;0.53;;;0.50;;
10281;SDS011;5186;59.472;18.048;2023-09-18T03:17:24;1.03;;;0.70;;
10281;SDS011;5186;59.472;18.048;2023-09-18T03:19:49;1.17;;;0.60;;
10281;SDS011;5186;59.472;18.048;2023-09-18T03:22:15;1.30;;;0.57;;
10281;SDS011;5186;59.472;18.048;2023-09-18T03:24:41;0.60;;;0.60;;
10281;SDS011;5186;59.472;18.048;2023-09-18T03:27:06;0.97;;;0.50;;
10281;SDS011;5186;59.472;18.048;2023-09-18T03:29:32;1.63;;;0.60;;
10281;SDS011;5186;59.472;18.048;2023-09-18T03:31:57;0.73;;;0.50;;
10281;SDS011;5186;59.472;18.048;2023-09-18T03:34:24;2.20;;;0.60;;
10281;SDS011;5186;59.472;18.048;2023-09-18T03:36:53;1.10;;;0.60;;
10281;SDS011;5186;59.472;18.048;2023-09-18T03:39:18;0.50;;;0.50;;
10281;SDS011;5186;59.472;18.048;2023-09-18T03:41:45;0.60;;;0.50;;
10281;SDS011;5186;59.472;18.048;2023-09-18T03:44:10;0.57;;;0.57;;
10281;SDS011;5186;59.472;18.048;2023-09-18T03:46:36;0.97;;;0.70;;
10281;SDS011;5186;59.472;18.048;2023-09-18T03:49:02;1.43;;;0.70;;
10281;SDS011;5186;59.472;18.048;2023-09-18T03:51:28;3.80;;;0.70;;
10281;SDS011;5186;59.472;18.048;2023-09-18T03:53:54;0.50;;;0.40;;
10281;SDS011;5186;59.472;18.048;2023-09-18T03:56:23;2.10;;;0.70;;
10281;SDS011;5186;59.472;18.048;2023-09-18T03:58:48;0.50;;;0.50;;
10281;SDS011;5186;59.472;18.048;2023-09-18T04:01:17;0.87;;;0.50;;
10281;SDS011;5186;59.472;18.048;2023-09-18T04:03:42;0.60;;;0.60;;
10281;SDS011;5186;59.472;18.048;2023-09-18T04:06:08;2.70;;;0.90;;
10281;SDS011;5186;59.472;18.048;2023-09-18T04:08:34;1.27;;;0.60;;
10281;SDS011;5186;59.472;18.048;2023-09-18T04:10:59;0.73;;;0.60;;
10281;SDS011;5186;59.472;18.048;2023-09-18T04:13:25;0.60;;;0.60;;
10281;SDS011;5186;59.472;18.048;2023-09-18T04:15:51;0.70;;;0.57;;
10281;SDS011;5186;59.472;18.048;2023-09-18T04:18:19;0.97;;;0.73;;
10281;SDS011;5186;59.472;18.048;2023-09-18T04:20:45;0.80;;;0.70;;
10281;SDS011;5186;59.472;18.048;2023-09-18T04:23:20;0.70;;;0.70;;
10281;SDS011;5186;59.472;18.048;2023-09-18T04:25:47;1.10;;;0.70;;
10281;SDS011;5186;59.472;18.048;2023-09-18T04:28:14;0.97;;;0.70;;
10281;SDS011;5186;59.472;18.048;2023-09-18T04:30:41;0.83;;;0.70;;
10281;SDS011;5186;59.472;18.048;2023-09-18T04:33:06;0.87;;;0.70;;
10281;SDS011;5186;59.472;18.048;2023-09-18T04:35:32;1.07;;;0.60;;
10281;SDS011;5186;59.472;18.048;2023-09-18T04:37:58;0.67;;;0.60;;
10281;SDS011;5186;59.472;18.048;2023-09-18T04:40:24;0.40;;;0.40;;
10281;SDS011;5186;59.472;18.048;2023-09-18T04:42:51;1.23;;;0.57;;
10281;SDS011;5186;59.472;18.048;2023-09-18T04:45:17;1.50;;;1.33;;
10281;SDS011;5186;59.472;18.048;2023-09-18T04:47:43;1.63;;;0.80;;
10281;SDS011;5186;59.472;18.048;2023-09-18T04:50:08;1.13;;;0.73;;
10281;SDS011;5186;59.472;18.048;2023-09-18T04:52:35;2.33;;;0.83;;
10281;SDS011;5186;59.472;18.048;2023-09-18T04:55:01;1.67;;;0.70;;
10281;SDS011;5186;59.472;18.048;2023-09-18T04:57:26;1.07;;;0.57;;
10281;SDS011;5186;59.472;18.048;2023-09-18T04:59:52;1.83;;;0.70;;
10281;SDS011;5186;59.472;18.048;2023-09-18T05:02:17;1.77;;;0.80;;
10281;SDS011;5186;59.472;18.048;2023-09-18T05:04:43;1.23;;;0.80;;
10281;SDS011;5186;59.472;18.048;2023-09-18T05:07:09;0.70;;;0.70;;
10281;SDS011;5186;59.472;18.048;2023-09-18T05:09:34;1.47;;;0.70;;
10281;SDS011;5186;59.472;18.048;2023-09-18T05:12:00;0.93;;;0.63;;
10281;SDS011;5186;59.472;18.048;2023-09-18T05:14:28;1.50;;;0.70;;
10281;SDS011;5186;59.472;18.048;2023-09-18T05:16:54;0.93;;;0.80;;
10281;SDS011;5186;59.472;18.048;2023-09-18T05:19:19;2.30;;;0.70;;
10281;SDS011;5186;59.472;18.048;2023-09-18T05:21:45;0.73;;;0.70;;
10281;SDS011;5186;59.472;18.048;2023-09-18T05:24:11;2.40;;;0.73;;
10281;SDS011;5186;59.472;18.048;2023-09-18T05:26:37;3.53;;;0.77;;
10281;SDS011;5186;59.472;18.048;2023-09-18T05:29:02;1.53;;;0.90;;
10281;SDS011;5186;59.472;18.048;2023-09-18T05:31:28;3.87;;;1.10;;
10281;SDS011;5186;59.472;18.048;2023-09-18T05:33:53;2.03;;;0.90;;
10281;SDS011;5186;59.472;18.048;2023-09-18T05:36:19;0.83;;;0.80;;
10281;SDS011;5186;59.472;18.048;2023-09-18T05:38:44;1.77;;;0.80;;
10281;SDS011;5186;59.472;18.048;2023-09-18T05:41:10;0.90;;;0.80;;
10281;SDS011;5186;59.472;18.048;2023-09-18T05:43:35;1.57;;;0.80;;
10281;SDS011;5186;59.472;18.048;2023-09-18T05:46:01;2.30;;;0.90;;
10281;SDS011;5186;59.472;18.048;2023-09-18T05:48:27;1.37;;;1.00;;
10281;SDS011;5186;59.472;18.048;2023-09-18T05:50:52;2.93;;;0.90;;
10281;SDS011;5186;59.472;18.048;2023-09-18T05:53:19;1.63;;;0.97;;
10281;SDS011;5186;59.472;18.048;2023-09-18T05:55:45;1.63;;;1.20;;
10281;SDS011;5186;59.472;18.048;2023-09-18T05:58:12;2.97;;;1.30;;
10281;SDS011;5186;59.472;18.048;2023-09-18T06:00:37;2.70;;;1.37;;
10281;SDS011;5186;59.472;18.048;2023-09-18T06:03:03;5.10;;;1.13;;
10281;SDS011;5186;59.472;18.048;2023-09-18T06:05:30;2.33;;;1.40;;
10281;SDS011;5186;59.472;18.048;2023-09-18T06:07:56;5.67;;;1.60;;
10281;SDS011;5186;59.472;18.048;2023-09-18T06:10:22;1.20;;;1.03;;
10281;SDS011;5186;59.472;18.048;2023-09-18T06:12:47;1.50;;;1.20;;
10281;SDS011;5186;59.472;18.048;2023-09-18T06:15:13;3.27;;;1.27;;
10281;SDS011;5186;59.472;18.048;2023-09-18T06:17:39;1.50;;;1.27;;
10281;SDS011;5186;59.472;18.048;2023-09-18T06:20:07;2.23;;;1.50;;
10281;SDS011;5186;59.472;18.048;2023-09-18T06:22:38;3.23;;;1.43;;
10281;SDS011;5186;59.472;18.048;2023-09-18T06:25:05;5.33;;;2.00;;
10281;SDS011;5186;59.472;18.048;2023-09-18T06:27:35;3.33;;;1.80;;
10281;SDS011;5186;59.472;18.048;2023-09-18T06:30:02;3.83;;;2.20;;
10281;SDS011;5186;59.472;18.048;2023-09-18T06:32:28;5.20;;;2.10;;
10281;SDS011;5186;59.472;18.048;2023-09-18T06:34:54;3.30;;;1.80;;
10281;SDS011;5186;59.472;18.048;2023-09-18T06:37:19;2.57;;;1.90;;
10281;SDS011;5186;59.472;18.048;2023-09-18T06:39:45;4.30;;;1.90;;
10281;SDS011;5186;59.472;18.048;2023-09-18T06:42:11;3.00;;;2.10;;
10281;SDS011;5186;59.472;18.048;2023-09-18T06:44:37;2.77;;;1.53;;
10281;SDS011;5186;59.472;18.048;2023-09-18T06:47:03;3.87;;;2.00;;
10281;SDS011;5186;59.472;18.048;2023-09-18T06:49:28;5.37;;;2.17;;
10281;SDS011;5186;59.472;18.048;2023-09-18T06:51:55;6.40;;;1.90;;
10281;SDS011;5186;59.472;18.048;2023-09-18T06:54:21;4.93;;;2.30;;
10281;SDS011;5186;59.472;18.048;2023-09-18T06:56:46;4.20;;;2.10;;
10281;SDS011;5186;59.472;18.048;2023-09-18T06:59:12;3.37;;;2.00;;
10281;SDS011;5186;59.472;18.048;2023-09-18T07:01:38;3.87;;;1.97;;
10281;SDS011;5186;59.472;18.048;2023-09-18T07:04:05;3.63;;;2.40;;
10281;SDS011;5186;59.472;18.048;2023-09-18T07:06:30;4.00;;;2.20;;
10281;SDS011;5186;59.472;18.048;2023-09-18T07:08:56;7.10;;;2.30;;
10281;SDS011;5186;59.472;18.048;2023-09-18T07:11:22;5.33;;;2.97;;
10281;SDS011;5186;59.472;18.048;2023-09-18T07:13:47;8.17;;;3.17;;
10281;SDS011;5186;59.472;18.048;2023-09-18T07:16:13;5.70;;;2.83;;
10281;SDS011;5186;59.472;18.048;2023-09-18T07:18:38;6.37;;;2.90;;
10281;SDS011;5186;59.472;18.048;2023-09-18T07:21:04;3.73;;;2.53;;
10281;SDS011;5186;59.472;18.048;2023-09-18T07:23:30;4.80;;;2.40;;
10281;SDS011;5186;59.472;18.048;2023-09-18T07:25:55;4.40;;;2.07;;
10281;SDS011;5186;59.472;18.048;2023-09-18T07:28:23;4.93;;;2.10;;
10281;SDS011;5186;59.472;18.048;2023-09-18T07:30:49;3.90;;;1.70;;
10281;SDS011;5186;59.472;18.048;2023-09-18T07:33:14;3.53;;;1.30;;
10281;SDS011;5186;59.472;18.048;2023-09-18T07:35:42;5.07;;;1.77;;
10281;SDS011;5186;59.472;18.048;2023-09-18T07:38:12;2.10;;;1.63;;
10281;SDS011;5186;59.472;18.048;2023-09-18T07:40:37;4.93;;;1.67;;
10281;SDS011;5186;59.472;18.048;2023-09-18T07:43:03;2.77;;;1.73;;
10281;SDS011;5186;59.472;18.048;2023-09-18T07:45:28;8.40;;;1.63;;
10281;SDS011;5186;59.472;18.048;2023-09-18T07:47:54;2.33;;;1.43;;
10281;SDS011;5186;59.472;18.048;2023-09-18T07:50:20;1.27;;;1.17;;
10281;SDS011;5186;59.472;18.048;2023-09-18T07:52:45;2.27;;;1.10;;
10281;SDS011;5186;59.472;18.048;2023-09-18T07:55:11;0.77;;;0.70;;
10281;SDS011;5186;59.472;18.048;2023-09-18T07:57:36;2.90;;;0.97;;
10281;SDS011;5186;59.472;18.048;2023-09-18T08:00:02;2.70;;;0.93;;
10281;SDS011;5186;59.472;18.048;2023-09-18T08:02:32;1.67;;;0.70;;
10281;SDS011;5186;59.472;18.048;2023-09-18T08:05:00;2.80;;;0.90;;
10281;SDS011;5186;59.472;18.048;2023-09-18T08:07:29;1.37;;;0.80;;
10281;SDS011;5186;59.472;18.048;2023-09-18T08:09:55;0.60;;;0.50;;
10281;SDS011;5186;59.472;18.048;2023-09-18T08:12:22;2.23;;;0.83;;
10281;SDS011;5186;59.472;18.048;2023-09-18T08:14:48;2.47;;;0.70;;
10281;SDS011;5186;59.472;18.048;2023-09-18T08:17:15;1.53;;;0.60;;
10281;SDS011;5186;59.472;18.048;2023-09-18T08:19:40;2.00;;;0.50;;
10281;SDS011;5186;59.472;18.048;2023-09-18T08:22:06;2.10;;;0.60;;
10281;SDS011;5186;59.472;18.048;2023-09-18T08:24:32;1.17;;;0.63;;
10281;SDS011;5186;59.472;18.048;2023-09-18T08:26:57;1.03;;;0.60;;
10281;SDS011;5186;59.472;18.048;2023-09-18T08:29:23;1.30;;;0.50;;
10281;SDS011;5186;59.472;18.048;2023-09-18T08:31:48;1.10;;;0.47;;
10281;SDS011;5186;59.472;18.048;2023-09-18T08:34:15;1.77;;;0.50;;
10281;SDS011;5186;59.472;18.048;2023-09-18T08:36:41;2.30;;;0.80;;
10281;SDS011;5186;59.472;18.048;2023-09-18T08:39:07;1.40;;;0.80;;
10281;SDS011;5186;59.472;18.048;2023-09-18T08:41:33;1.83;;;0.60;;
10281;SDS011;5186;59.472;18.048;2023-09-18T08:44:03;2.73;;;0.67;;
10281;SDS011;5186;59.472;18.048;2023-09-18T08:46:31;1.07;;;0.60;;
10281;SDS011;5186;59.472;18.048;2023-09-18T08:48:59;1.00;;;0.60;;
10281;SDS011;5186;59.472;18.048;2023-09-18T08:51:25;2.70;;;0.70;;
10281;SDS011;5186;59.472;18.048;2023-09-18T08:53:52;3.37;;;0.83;;
10281;SDS011;5186;59.472;18.048;2023-09-18T08:56:19;1.83;;;0.63;;
10281;SDS011;5186;59.472;18.048;2023-09-18T08:58:46;1.77;;;0.60;;
10281;SDS011;5186;59.472;18.048;2023-09-18T09:01:12;1.23;;;0.50;;
10281;SDS011;5186;59.472;18.048;2023-09-18T09:03:38;0.50;;;0.50;;
10281;SDS011;5186;59.472;18.048;2023-09-18T09:06:06;0.80;;;0.50;;
10281;SDS011;5186;59.472;18.048;2023-09-18T09:08:32;2.10;;;0.70;;
10281;SDS011;5186;59.472;18.048;2023-09-18T09:10:58;0.57;;;0.50;;
10281;SDS011;5186;59.472;18.048;2023-09-18T09:13:24;2.73;;;0.57;;
10281;SDS011;5186;59.472;18.048;2023-09-18T09:15:52;1.17;;;0.50;;
10281;SDS011;5186;59.472;18.048;2023-09-18T09:18:20;2.30;;;0.40;;
10281;SDS011;5186;59.472;18.048;2023-09-18T09:20:53;3.87;;;0.60;;
10281;SDS011;5186;59.472;18.048;2023-09-18T09:23:22;0.70;;;0.40;;
10281;SDS011;5186;59.472;18.048;2023-09-18T09:25:49;1.00;;;0.43;;
10281;SDS011;5186;59.472;18.048;2023-09-18T09:28:14;0.50;;;0.50;;
10281;SDS011;5186;59.472;18.048;2023-09-18T09:30:41;2.53;;;0.70;;
10281;SDS011;5186;59.472;18.048;2023-09-18T09:33:07;0.97;;;0.50;;
10281;SDS011;5186;59.472;18.048;2023-09-18T09:35:36;0.77;;;0.53;;
10281;SDS011;5186;59.472;18.048;2023-09-18T09:38:09;4.43;;;0.83;;
10281;SDS011;5186;59.472;18.048;2023-09-18T09:40:38;1.40;;;0.50;;
10281;SDS011;5186;59.472;18.048;2023-09-18T09:43:11;1.53;;;0.77;;
10281;SDS011;5186;59.472;18.048;2023-09-18T09:45:39;1.40;;;0.60;;
10281;SDS011;5186;59.472;18.048;2023-09-18T09:48:06;3.43;;;0.80;;
10281;SDS011;5186;59.472;18.048;2023-09-18T09:50:34;4.43;;;0.80;;
10281;SDS011;5186;59.472;18.048;2023-09-18T09:53:13;2.53;;;0.60;;
10281;SDS011;5186;59.472;18.048;2023-09-18T09:55:39;2.13;;;0.70;;
10281;SDS011;5186;59.472;18.048;2023-09-18T09:58:06;1.60;;;0.53;;
10281;SDS011;5186;59.472;18.048;2023-09-18T10:00:39;1.50;;;0.50;;
10281;SDS011;5186;59.472;18.048;2023-09-18T10:03:12;1.67;;;0.83;;
10281;SDS011;5186;59.472;18.048;2023-09-18T10:05:40;0.60;;;0.50;;
10281;SDS011;5186;59.472;18.048;2023-09-18T10:08:12;1.03;;;0.60;;
10281;SDS011;5186;59.472;18.048;2023-09-18T10:10:45;1.80;;;0.67;;
10281;SDS011;5186;59.472;18.048;2023-09-18T10:13:15;0.70;;;0.53;;
10281;SDS011;5186;59.472;18.048;2023-09-18T10:16:04;1.80;;;0.60;;
10281;SDS011;5186;59.472;18.048;2023-09-18T10:21:26;0.93;;;0.60;;
10281;SDS011;5186;59.472;18.048;2023-09-18T10:23:59;1.63;;;0.63;;
10281;SDS011;5186;59.472;18.048;2023-09-18T10:26:39;2.13;;;0.70;;
10281;SDS011;5186;59.472;18.048;2023-09-18T10:29:14;2.63;;;0.50;;
10281;SDS011;5186;59.472;18.048;2023-09-18T10:31:43;0.80;;;0.50;;
10281;SDS011;5186;59.472;18.048;2023-09-18T10:34:10;1.10;;;0.50;;
10281;SDS011;5186;59.472;18.048;2023-09-18T10:36:38;2.57;;;0.60;;
10281;SDS011;5186;59.472;18.048;2023-09-18T10:39:06;1.60;;;0.40;;
10281;SDS011;5186;59.472;18.048;2023-09-18T10:41:37;1.30;;;0.50;;
10281;SDS011;5186;59.472;18.048;2023-09-18T10:44:03;0.80;;;0.40;;
10281;SDS011;5186;59.472;18.048;2023-09-18T10:46:29;1.20;;;0.47;;
10281;SDS011;5186;59.472;18.048;2023-09-18T10:48:55;2.13;;;0.50;;
10281;SDS011;5186;59.472;18.048;2023-09-18T10:51:22;1.60;;;0.60;;
10281;SDS011;5186;59.472;18.048;2023-09-18T10:53:49;0.87;;;0.60;;
10281;SDS011;5186;59.472;18.048;2023-09-18T10:56:15;1.20;;;0.50;;
10281;SDS011;5186;59.472;18.048;2023-09-18T10:58:41;1.47;;;0.70;;
10281;SDS011;5186;59.472;18.048;2023-09-18T11:01:09;1.70;;;0.60;;
10281;SDS011;5186;59.472;18.048;2023-09-18T11:03:37;2.13;;;0.70;;
10281;SDS011;5186;59.472;18.048;2023-09-18T11:06:04;1.33;;;0.63;;
10281;SDS011;5186;59.472;18.048;2023-09-18T11:13:52;1.53;;;0.60;;
10281;SDS011;5186;59.472;18.048;2023-09-18T11:18:53;1.23;;;0.50;;
10281;SDS011;5186;59.472;18.048;2023-09-18T11:21:33;2.37;;;0.67;;
10281;SDS011;5186;59.472;18.048;2023-09-18T11:24:00;0.83;;;0.47;;
10281;SDS011;5186;59.472;18.048;2023-09-18T11:26:37;1.70;;;0.50;;
10281;SDS011;5186;59.472;18.048;2023-09-18T11:29:08;0.80;;;0.50;;
10281;SDS011;5186;59.472;18.048;2023-09-18T11:31:42;1.23;;;0.60;;
10281;SDS011;5186;59.472;18.048;2023-09-18T11:34:20;0.77;;;0.50;;
10281;SDS011;5186;59.472;18.048;2023-09-18T11:36:47;2.03;;;0.40;;
10281;SDS011;5186;59.472;18.048;2023-09-18T11:39:13;1.57;;;0.60;;
10281;SDS011;5186;59.472;18.048;2023-09-18T11:41:38;1.93;;;0.50;;
10281;SDS011;5186;59.472;18.048;2023-09-18T11:46:44;1.07;;;0.40;;
10281;SDS011;5186;59.472;18.048;2023-09-18T11:49:11;3.23;;;0.57;;
10281;SDS011;5186;59.472;18.048;2023-09-18T11:51:39;1.50;;;0.73;;
10281;SDS011;5186;59.472;18.048;2023-09-18T11:54:06;2.50;;;0.53;;
10281;SDS011;5186;59.472;18.048;2023-09-18T11:56:33;1.10;;;0.43;;
10281;SDS011;5186;59.472;18.048;2023-09-18T11:58:58;0.87;;;0.60;;
10281;SDS011;5186;59.472;18.048;2023-09-18T12:01:24;1.73;;;0.67;;
10281;SDS011;5186;59.472;18.048;2023-09-18T12:14:21;1.70;;;0.53;;
10281;SDS011;5186;59.472;18.048;2023-09-18T12:16:47;2.43;;;0.60;;
10281;SDS011;5186;59.472;18.048;2023-09-18T12:19:18;1.20;;;0.60;;
10281;SDS011;5186;59.472;18.048;2023-09-18T12:21:45;1.97;;;0.50;;
10281;SDS011;5186;59.472;18.048;2023-09-18T12:24:20;2.00;;;0.53;;
10281;SDS011;5186;59.472;18.048;2023-09-18T12:26:47;2.03;;;0.60;;
10281;SDS011;5186;59.472;18.048;2023-09-18T12:29:13;3.20;;;0.70;;
10281;SDS011;5186;59.472;18.048;2023-09-18T12:31:39;1.93;;;0.50;;
10281;SDS011;5186;59.472;18.048;2023-09-18T12:34:05;0.93;;;0.50;;
10281;SDS011;5186;59.472;18.048;2023-09-18T12:36:44;2.20;;;0.60;;
10281;SDS011;5186;59.472;18.048;2023-09-18T12:39:12;3.63;;;0.50;;
10281;SDS011;5186;59.472;18.048;2023-09-18T12:41:41;1.00;;;0.57;;
10281;SDS011;5186;59.472;18.048;2023-09-18T12:44:09;0.80;;;0.40;;
10281;SDS011;5186;59.472;18.048;2023-09-18T12:46:35;2.13;;;0.40;;
10281;SDS011;5186;59.472;18.048;2023-09-18T12:49:21;1.10;;;0.40;;
10281;SDS011;5186;59.472;18.048;2023-09-18T12:57:04;0.70;;;0.40;;
10281;SDS011;5186;59.472;18.048;2023-09-18T12:59:31;1.73;;;0.67;;
10281;SDS011;5186;59.472;18.048;2023-09-18T13:01:58;3.60;;;0.90;;
10281;SDS011;5186;59.472;18.048;2023-09-18T13:04:24;2.40;;;0.60;;
10281;SDS011;5186;59.472;18.048;2023-09-18T13:09:38;1.00;;;0.40;;
10281;SDS011;5186;59.472;18.048;2023-09-18T13:12:05;0.90;;;0.30;;
10281;SDS011;5186;59.472;18.048;2023-09-18T13:14:56;2.37;;;0.53;;
10281;SDS011;5186;59.472;18.048;2023-09-18T13:17:45;2.70;;;0.60;;
10281;SDS011;5186;59.472;18.048;2023-09-18T13:20:11;1.47;;;0.67;;
10281;SDS011;5186;59.472;18.048;2023-09-18T13:22:51;2.67;;;0.50;;
10281;SDS011;5186;59.472;18.048;2023-09-18T13:25:19;2.70;;;0.50;;
10281;SDS011;5186;59.472;18.048;2023-09-18T13:28:09;1.27;;;0.60;;
10281;SDS011;5186;59.472;18.048;2023-09-18T13:30:38;0.60;;;0.30;;
10281;SDS011;5186;59.472;18.048;2023-09-18T13:33:06;0.60;;;0.40;;
10281;SDS011;5186;59.472;18.048;2023-09-18T13:35:34;2.57;;;0.60;;
10281;SDS011;5186;59.472;18.048;2023-09-18T13:38:00;1.07;;;0.40;;
10281;SDS011;5186;59.472;18.048;2023-09-18T13:40:29;0.40;;;0.30;;
10281;SDS011;5186;59.472;18.048;2023-09-18T13:42:55;1.20;;;0.60;;
10281;SDS011;5186;59.472;18.048;2023-09-18T13:45:20;2.10;;;0.53;;
10281;SDS011;5186;59.472;18.048;2023-09-18T13:47:46;1.53;;;0.60;;
10281;SDS011;5186;59.472;18.048;2023-09-18T13:50:14;1.90;;;0.50;;
10281;SDS011;5186;59.472;18.048;2023-09-18T13:52:39;0.90;;;0.43;;
10281;SDS011;5186;59.472;18.048;2023-09-18T13:55:05;2.20;;;0.70;;
10281;SDS011;5186;59.472;18.048;2023-09-18T13:57:31;2.97;;;0.60;;
10281;SDS011;5186;59.472;18.048;2023-09-18T13:59:59;0.40;;;0.40;;
10281;SDS011;5186;59.472;18.048;2023-09-18T14:02:25;3.30;;;0.60;;
10281;SDS011;5186;59.472;18.048;2023-09-18T14:04:52;2.00;;;0.60;;
10281;SDS011;5186;59.472;18.048;2023-09-18T14:07:19;3.43;;;0.70;;
10281;SDS011;5186;59.472;18.048;2023-09-18T14:09:45;3.23;;;0.60;;
10281;SDS011;5186;59.472;18.048;2023-09-18T14:12:13;1.00;;;0.40;;
10281;SDS011;5186;59.472;18.048;2023-09-18T14:14:40;1.10;;;0.50;;
10281;SDS011;5186;59.472;18.048;2023-09-18T14:17:07;1.47;;;0.57;;
10281;SDS011;5186;59.472;18.048;2023-09-18T14:19:35;0.50;;;0.30;;
10281;SDS011;5186;59.472;18.048;2023-09-18T14:22:03;1.30;;;0.40;;
10281;SDS011;5186;59.472;18.048;2023-09-18T14:24:33;1.00;;;0.40;;
10281;SDS011;5186;59.472;18.048;2023-09-18T14:27:02;1.50;;;0.57;;
10281;SDS011;5186;59.472;18.048;2023-09-18T14:29:28;0.90;;;0.50;;
10281;SDS011;5186;59.472;18.048;2023-09-18T14:31:57;3.13;;;0.63;;
10281;SDS011;5186;59.472;18.048;2023-09-18T14:34:22;2.13;;;0.60;;
10281;SDS011;5186;59.472;18.048;2023-09-18T14:36:48;2.73;;;0.60;;
10281;SDS011;5186;59.472;18.048;2023-09-18T14:39:14;1.70;;;0.50;;
10281;SDS011;5186;59.472;18.048;2023-09-18T14:41:40;1.37;;;0.40;;
10281;SDS011;5186;59.472;18.048;2023-09-18T14:44:08;1.53;;;0.60;;
10281;SDS011;5186;59.472;18.048;2023-09-18T14:46:34;3.07;;;0.60;;
10281;SDS011;5186;59.472;18.048;2023-09-18T14:49:02;0.97;;;0.60;;
10281;SDS011;5186;59.472;18.048;2023-09-18T14:51:28;1.27;;;0.60;;
10281;SDS011;5186;59.472;18.048;2023-09-18T14:53:54;1.37;;;0.60;;
10281;SDS011;5186;59.472;18.048;2023-09-18T14:56:20;1.53;;;0.90;;
10281;SDS011;5186;59.472;18.048;2023-09-18T14:58:46;1.80;;;0.60;;
10281;SDS011;5186;59.472;18.048;2023-09-18T15:01:12;2.50;;;0.67;;
10281;SDS011;5186;59.472;18.048;2023-09-18T15:03:39;2.10;;;0.80;;
10281;SDS011;5186;59.472;18.048;2023-09-18T15:06:05;1.87;;;0.67;;
10281;SDS011;5186;59.472;18.048;2023-09-18T15:08:32;2.33;;;0.50;;
10281;SDS011;5186;59.472;18.048;2023-09-18T15:10:58;1.20;;;0.80;;
10281;SDS011;5186;59.472;18.048;2023-09-18T15:13:24;1.33;;;0.70;;
10281;SDS011;5186;59.472;18.048;2023-09-18T15:15:50;1.37;;;0.70;;
10281;SDS011;5186;59.472;18.048;2023-09-18T15:18:15;0.67;;;0.60;;
10281;SDS011;5186;59.472;18.048;2023-09-18T15:20:41;1.13;;;0.53;;